Airport View

Enter AWOS ICAO identifier for current METAR.

ex. KFNL

KGFL 101453Z AUTO 19006KT 10SM CLR 27/20 A3002 RMK AO2 SLP161 T02670200 56005 TSNO

10 Aug 2020 15:09

Frequency: 119.925

Phone: 518-743-1728

Other Area AWOS: KRUT - KDDH - KSCH - KALB

TAF KGFL 101122Z 1012/1112 17003KT P6SM SCT040 SCT250 FM101800 20007KT P6SM VCSH SCT045 SCT120 BKN200 PROB30 1021/1024 4SM -TSRA BR BKN045CB FM110200 21004KT P6SM SCT045 SCT250 FM110800 00000KT 3SM BR BKN250